createdAt,value
2022-10-31T00:11:50.531Z,7.30
2022-10-31T00:46:38.805Z,7.10
2022-10-31T01:42:57.021Z,6.70
2022-10-31T02:07:50.902Z,6.60
2022-10-31T02:33:48.206Z,6.50
2022-10-31T02:38:10.588Z,6.40
2022-10-31T03:13:49.054Z,6.00
2022-10-31T03:44:35.531Z,5.90
2022-10-31T04:14:36.826Z,5.80
2022-10-31T05:10:41.357Z,5.50
2022-10-31T05:40:47.112Z,5.40
2022-10-31T06:06:38.761Z,5.90
2022-10-31T06:47:21.692Z,6.90
2022-10-31T07:17:49.264Z,7.90
2022-10-31T07:48:00.375Z,8.40
2022-10-31T08:18:29.783Z,9.40
2022-10-31T08:48:50.497Z,10.30
2022-10-31T09:14:15.646Z,11.00
2022-10-31T09:39:41.799Z,11.30
2022-10-31T10:05:07.201Z,11.40
2022-10-31T10:35:01.150Z,12.30
2022-10-31T11:06:02.192Z,13.20
2022-10-31T11:35:47.876Z,14.00
2022-10-31T11:56:40.869Z,14.30
2022-10-31T13:02:42.548Z,15.20
2022-10-31T13:27:26.768Z,15.30
2022-10-31T13:52:49.034Z,15.10
2022-10-31T14:18:33.653Z,14.50
2022-10-31T14:53:48.418Z,13.10
2022-10-31T15:19:28.343Z,12.00
2022-10-31T15:39:47.254Z,11.40
2022-10-31T16:14:47.144Z,11.20
2022-10-31T16:35:27.867Z,11.60
2022-10-31T17:01:00.792Z,11.90
2022-10-31T17:30:49.252Z,11.80
2022-10-31T17:56:31.395Z,11.80
2022-10-31T18:17:08.519Z,11.80
2022-10-31T18:41:54.990Z,12.00
2022-10-31T19:07:54.905Z,12.10
2022-10-31T19:12:14.129Z,12.10
2022-10-31T19:27:34.990Z,12.20
2022-10-31T19:53:14.794Z,12.10
2022-10-31T20:38:55.138Z,12.10
2022-10-31T21:13:55.282Z,12.20
2022-10-31T21:44:28.492Z,12.40
2022-10-31T22:15:28.523Z,12.40
2022-10-31T22:50:16.844Z,12.70
2022-10-31T23:36:05.677Z,12.50
